createdAt,value
2019-05-05T00:01:30.503Z,48.10
2019-05-05T00:04:04.501Z,48.20
2019-05-05T00:06:34.246Z,48.10
2019-05-05T00:09:05.283Z,48.10
2019-05-05T00:11:44.516Z,48.90
2019-05-05T00:14:15.196Z,48.50
2019-05-05T00:16:48.235Z,48.60
2019-05-05T00:19:29.826Z,48.80
2019-05-05T00:21:46.860Z,48.50
2019-05-05T00:24:15.364Z,49.60
2019-05-05T00:26:45.903Z,49.50
2019-05-05T00:29:14.850Z,49.90
2019-05-05T00:31:45.279Z,49.90
2019-05-05T00:34:15.296Z,49.90
2019-05-05T00:36:44.568Z,50.10
2019-05-05T00:39:14.976Z,49.90
2019-05-05T00:41:44.873Z,50.20
2019-05-05T00:44:15.381Z,49.90
2019-05-05T00:46:55.074Z,50.00
2019-05-05T00:49:25.666Z,50.40
2019-05-05T00:51:55.558Z,50.10
2019-05-05T00:54:24.463Z,50.20
2019-05-05T00:56:54.443Z,49.90
2019-05-05T00:59:25.239Z,50.10
2019-05-05T01:02:04.728Z,50.20
2019-05-05T01:04:51.269Z,49.70
2019-05-05T01:07:20.334Z,50.00
2019-05-05T01:09:49.042Z,50.00
2019-05-05T01:12:17.776Z,50.30
2019-05-05T01:14:46.214Z,50.30
2019-05-05T01:17:14.851Z,50.00
2019-05-05T01:19:45.416Z,50.10
2019-05-05T01:22:14.363Z,50.00
2019-05-05T01:24:43.299Z,50.10
2019-05-05T01:27:11.731Z,49.70
2019-05-05T01:29:40.546Z,50.00
2019-05-05T01:32:10.687Z,49.70
2019-05-05T01:34:40.778Z,50.10
2019-05-05T01:37:15.153Z,49.80
2019-05-05T01:39:51.018Z,49.70
2019-05-05T01:42:19.541Z,51.00
2019-05-05T01:44:48.064Z,50.20
2019-05-05T01:47:16.572Z,50.10
2019-05-05T01:49:45.429Z,50.20
2019-05-05T01:52:14.879Z,50.50
2019-05-05T01:54:44.600Z,50.70
2019-05-05T01:57:14.861Z,50.60
2019-05-05T01:59:44.736Z,51.00
2019-05-05T02:02:14.616Z,51.40
2019-05-05T02:04:44.761Z,51.60
2019-05-05T02:07:14.439Z,52.10
2019-05-05T02:09:44.845Z,52.80
2019-05-05T02:12:15.202Z,52.60
2019-05-05T02:14:44.437Z,53.50
2019-05-05T02:17:14.441Z,53.50
2019-05-05T02:19:44.310Z,53.50
2019-05-05T02:22:14.639Z,53.30
2019-05-05T02:24:44.384Z,53.50
2019-05-05T02:27:14.739Z,53.70
2019-05-05T02:29:48.056Z,53.40
2019-05-05T02:32:18.134Z,53.40
2019-05-05T02:34:57.321Z,53.10
2019-05-05T02:37:25.977Z,53.20
2019-05-05T02:39:58.879Z,52.60
2019-05-05T02:42:27.146Z,53.00
2019-05-05T02:44:58.841Z,52.80
2019-05-05T02:47:35.044Z,53.00
2019-05-05T02:50:06.407Z,53.10
2019-05-05T02:52:36.872Z,53.00
2019-05-05T02:55:06.134Z,52.90
2019-05-05T02:57:35.318Z,52.50
2019-05-05T03:00:15.306Z,53.20
2019-05-05T03:02:43.804Z,53.20
2019-05-05T03:05:14.166Z,53.30
2019-05-05T03:07:43.756Z,52.90
2019-05-05T03:10:14.124Z,53.10
2019-05-05T03:12:43.898Z,52.80
2019-05-05T03:15:15.659Z,53.00
2019-05-05T03:17:44.561Z,53.40
2019-05-05T03:20:14.524Z,52.60
2019-05-05T03:22:43.542Z,52.30
2019-05-05T03:25:13.623Z,52.60
2019-05-05T03:27:44.440Z,52.20
2019-05-05T03:30:15.390Z,52.40
2019-05-05T03:32:45.564Z,52.60
2019-05-05T03:35:14.076Z,52.30
2019-05-05T03:37:44.614Z,52.10
2019-05-05T03:40:15.487Z,52.10
2019-05-05T03:42:45.591Z,52.00
2019-05-05T03:45:16.119Z,52.00
2019-05-05T03:47:44.635Z,52.00
2019-05-05T03:50:14.407Z,52.10
2019-05-05T03:52:43.940Z,52.00
2019-05-05T03:55:13.766Z,52.10
2019-05-05T03:57:44.527Z,51.70
2019-05-05T04:00:15.042Z,51.50
2019-05-05T04:02:50.999Z,52.40
2019-05-05T04:05:27.326Z,51.80
2019-05-05T04:07:56.019Z,51.60
2019-05-05T04:10:24.584Z,51.30
2019-05-05T04:12:54.010Z,51.30
2019-05-05T04:15:24.330Z,51.10
2019-05-05T04:17:57.627Z,51.10
2019-05-05T04:20:27.542Z,51.10
2019-05-05T04:22:58.076Z,51.40
2019-05-05T04:25:26.239Z,51.50
2019-05-05T04:27:54.703Z,51.40
2019-05-05T04:30:23.804Z,51.70
2019-05-05T04:32:54.372Z,51.40
2019-05-05T04:35:24.450Z,51.80
2019-05-05T04:37:54.223Z,51.70
2019-05-05T04:40:24.060Z,52.00
2019-05-05T04:42:54.716Z,52.20
2019-05-05T04:45:24.064Z,51.80
2019-05-05T04:48:04.285Z,51.70
2019-05-05T04:50:49.764Z,52.50
2019-05-05T04:53:24.089Z,52.00
2019-05-05T04:55:53.615Z,52.00
2019-05-05T04:58:24.142Z,52.30
2019-05-05T05:00:56.796Z,52.10
2019-05-05T05:03:29.715Z,51.10
2019-05-05T05:06:04.161Z,51.90
2019-05-05T05:08:33.822Z,51.80
2019-05-05T05:11:03.646Z,51.70
2019-05-05T05:13:34.582Z,52.10
2019-05-05T05:16:04.405Z,51.70
2019-05-05T05:18:34.363Z,51.90
2019-05-05T05:21:03.959Z,51.70
2019-05-05T05:23:34.059Z,51.70
2019-05-05T05:26:04.883Z,51.60
2019-05-05T05:28:34.210Z,51.80
2019-05-05T05:31:03.887Z,52.10
2019-05-05T05:33:34.512Z,51.90
2019-05-05T05:36:04.001Z,52.10
2019-05-05T05:38:34.634Z,52.10
2019-05-05T05:41:04.515Z,51.70
2019-05-05T05:43:40.311Z,52.30
2019-05-05T05:46:19.022Z,52.30
2019-05-05T05:48:58.150Z,52.10
2019-05-05T05:51:26.611Z,52.10
2019-05-05T05:53:55.048Z,52.20
2019-05-05T05:56:24.969Z,52.00
2019-05-05T05:58:54.268Z,51.40
2019-05-05T06:01:23.949Z,51.50
2019-05-05T06:03:53.625Z,51.10
2019-05-05T06:06:23.991Z,51.30
2019-05-05T06:08:54.256Z,51.40
2019-05-05T06:11:23.879Z,51.80
2019-05-05T06:13:54.391Z,51.50
2019-05-05T06:16:23.545Z,51.70
2019-05-05T06:18:54.131Z,51.70
2019-05-05T06:21:24.076Z,52.00
2019-05-05T06:23:55.399Z,51.30
2019-05-05T06:26:24.136Z,50.70
2019-05-05T06:28:54.078Z,51.40
2019-05-05T06:31:24.450Z,51.70
2019-05-05T06:33:54.322Z,51.30
2019-05-05T06:36:23.465Z,51.40
2019-05-05T06:38:54.027Z,51.10
2019-05-05T06:41:23.851Z,51.40
2019-05-05T06:44:14.082Z,51.00
2019-05-05T06:46:59.636Z,50.90
2019-05-05T06:49:31.064Z,50.50
2019-05-05T06:51:58.382Z,50.70
2019-05-05T06:54:26.826Z,50.80
2019-05-05T06:57:01.863Z,50.10
2019-05-05T06:59:30.750Z,50.00
2019-05-05T07:01:59.947Z,50.00
2019-05-05T07:04:28.459Z,50.40
2019-05-05T07:06:57.288Z,49.90
2019-05-05T07:09:25.910Z,50.20
2019-05-05T07:11:54.423Z,49.90
2019-05-05T07:14:23.646Z,49.60
2019-05-05T07:16:54.328Z,49.00
2019-05-05T07:19:23.922Z,48.90
2019-05-05T07:21:53.821Z,47.70
2019-05-05T07:24:23.859Z,46.60
2019-05-05T07:26:54.181Z,46.20
2019-05-05T07:29:23.875Z,46.50
2019-05-05T07:31:55.973Z,44.20
2019-05-05T07:34:25.769Z,44.20
2019-05-05T07:36:54.790Z,43.60
2019-05-05T07:39:23.900Z,40.40
2019-05-05T07:41:54.155Z,39.60
2019-05-05T07:44:29.052Z,39.00
2019-05-05T07:46:54.350Z,38.50
2019-05-05T07:49:24.329Z,37.60
2019-05-05T07:51:54.744Z,36.90
2019-05-05T07:54:23.690Z,35.60
2019-05-05T07:56:53.821Z,34.50
2019-05-05T07:59:23.794Z,32.90
2019-05-05T08:01:54.598Z,33.40
2019-05-05T08:04:24.289Z,32.90
2019-05-05T08:06:53.861Z,31.80
2019-05-05T08:09:24.693Z,31.30
2019-05-05T08:11:54.157Z,28.00
2019-05-05T08:14:24.611Z,28.10
2019-05-05T08:16:57.715Z,27.10
2019-05-05T08:19:46.437Z,26.60
2019-05-05T08:22:16.012Z,27.80
2019-05-05T08:25:04.148Z,29.50
2019-05-05T08:27:37.491Z,29.10
2019-05-05T08:30:09.006Z,29.10
2019-05-05T08:32:39.116Z,28.80
2019-05-05T08:35:07.820Z,29.30
2019-05-05T08:37:36.254Z,27.60
2019-05-05T08:40:06.409Z,28.20
2019-05-05T08:42:34.842Z,25.30
2019-05-05T08:45:04.638Z,26.40
2019-05-05T08:47:34.540Z,25.70
2019-05-05T08:50:05.402Z,24.80
2019-05-05T08:52:34.329Z,26.30
2019-05-05T08:55:04.707Z,27.10
2019-05-05T08:57:34.132Z,27.40
2019-05-05T09:00:04.885Z,26.60
2019-05-05T09:02:36.003Z,26.80
2019-05-05T09:05:04.894Z,26.50
2019-05-05T09:07:33.700Z,26.00
2019-05-05T09:10:03.884Z,26.40
2019-05-05T09:12:33.892Z,26.40
2019-05-05T09:15:04.450Z,26.90
2019-05-05T09:17:33.627Z,27.10
2019-05-05T09:20:04.376Z,26.90
2019-05-05T09:22:34.682Z,27.10
2019-05-05T09:25:09.811Z,27.60
2019-05-05T09:27:39.891Z,27.00
2019-05-05T09:30:10.526Z,25.50
2019-05-05T09:32:38.967Z,25.60
2019-05-05T09:35:08.464Z,26.50
2019-05-05T09:37:36.972Z,26.80
2019-05-05T09:40:07.143Z,26.70
2019-05-05T09:42:35.596Z,27.30
2019-05-05T09:45:06.407Z,27.40
2019-05-05T09:47:34.838Z,27.60
2019-05-05T09:50:05.039Z,28.00
2019-05-05T09:52:33.835Z,28.20
2019-05-05T09:55:03.814Z,29.00
2019-05-05T09:57:34.366Z,29.20
2019-05-05T10:00:08.295Z,29.40
2019-05-05T10:02:36.808Z,29.80
2019-05-05T10:05:08.942Z,30.20
2019-05-05T10:07:37.378Z,30.50
2019-05-05T10:10:06.377Z,31.00
2019-05-05T10:12:34.878Z,30.50
2019-05-05T10:15:07.514Z,29.50
2019-05-05T10:17:34.572Z,29.40
2019-05-05T10:20:04.750Z,30.50
2019-05-05T10:22:34.321Z,30.40
2019-05-05T10:25:23.794Z,30.00
2019-05-05T10:27:53.809Z,30.90
2019-05-05T10:30:23.830Z,30.70
2019-05-05T10:32:54.479Z,30.20
2019-05-05T10:35:23.733Z,30.70
2019-05-05T10:37:54.322Z,31.20
2019-05-05T10:40:30.395Z,30.90
2019-05-05T10:42:59.135Z,30.90
2019-05-05T10:45:27.662Z,30.90
2019-05-05T10:47:56.230Z,31.10
2019-05-05T10:50:24.939Z,31.20
2019-05-05T10:52:53.768Z,31.40
2019-05-05T10:55:23.893Z,29.90
2019-05-05T10:57:54.233Z,29.00
2019-05-05T11:00:38.058Z,28.70
2019-05-05T11:03:06.562Z,29.20
2019-05-05T11:05:35.067Z,29.50
2019-05-05T11:08:04.393Z,29.50
2019-05-05T11:10:34.339Z,29.80
2019-05-05T11:13:03.187Z,30.40
2019-05-05T11:15:33.494Z,31.00
2019-05-05T11:18:03.931Z,31.00
2019-05-05T11:20:33.959Z,31.00
2019-05-05T11:23:02.346Z,31.40
2019-05-05T11:25:31.084Z,32.70
2019-05-05T11:28:00.914Z,32.70
2019-05-05T11:30:38.219Z,32.50
2019-05-05T11:33:24.987Z,32.00
2019-05-05T11:35:58.156Z,32.90
2019-05-05T11:38:26.685Z,32.50
2019-05-05T11:40:55.200Z,32.40
2019-05-05T11:43:24.687Z,32.90
2019-05-05T11:45:54.396Z,29.70
2019-05-05T11:48:24.039Z,28.90
2019-05-05T11:50:54.041Z,29.30
2019-05-05T11:53:24.885Z,29.70
2019-05-05T11:55:55.023Z,30.20
2019-05-05T11:58:24.847Z,30.60
2019-05-05T12:00:54.469Z,31.10
2019-05-05T12:03:23.425Z,31.30
2019-05-05T12:05:51.931Z,30.80
2019-05-05T12:08:20.392Z,31.20
2019-05-05T12:10:54.229Z,31.00
2019-05-05T12:13:22.752Z,31.20
2019-05-05T12:15:53.833Z,30.20
2019-05-05T12:18:23.695Z,30.20
2019-05-05T12:20:54.225Z,29.20
2019-05-05T12:23:22.940Z,29.60
2019-05-05T12:25:57.033Z,28.90
2019-05-05T12:28:24.943Z,28.40
2019-05-05T12:30:55.727Z,28.80
2019-05-05T12:33:24.327Z,28.50
2019-05-05T12:35:54.012Z,27.60
2019-05-05T12:38:24.119Z,27.80
2019-05-05T12:40:53.504Z,26.80
2019-05-05T12:43:24.545Z,27.30
2019-05-05T12:46:10.740Z,26.90
2019-05-05T12:48:40.933Z,26.60
2019-05-05T12:51:09.505Z,27.00
2019-05-05T12:53:39.744Z,27.20
2019-05-05T12:56:11.174Z,27.20
2019-05-05T12:58:39.925Z,27.70
2019-05-05T13:01:14.590Z,27.80
2019-05-05T13:03:45.047Z,28.20
2019-05-05T13:06:14.701Z,28.00
2019-05-05T13:08:44.517Z,28.00
2019-05-05T13:11:13.303Z,28.70
2019-05-05T13:13:43.793Z,28.80
2019-05-05T13:16:13.622Z,28.20
2019-05-05T13:18:42.642Z,27.50
2019-05-05T13:21:24.380Z,27.50
2019-05-05T13:23:54.631Z,28.10
2019-05-05T13:26:30.710Z,28.50
2019-05-05T13:28:59.258Z,29.10
2019-05-05T13:31:27.699Z,28.90
2019-05-05T13:33:56.204Z,28.90
2019-05-05T13:36:24.657Z,29.00
2019-05-05T13:38:54.579Z,29.10
2019-05-05T13:41:23.299Z,28.40
2019-05-05T13:43:53.950Z,29.00
2019-05-05T13:46:29.752Z,29.10
2019-05-05T13:48:59.831Z,29.30
2019-05-05T13:51:28.307Z,29.20
2019-05-05T13:53:56.767Z,29.40
2019-05-05T13:56:25.273Z,29.50
2019-05-05T13:58:53.785Z,29.80
2019-05-05T14:01:23.740Z,29.90
2019-05-05T14:03:54.155Z,29.40
2019-05-05T14:06:24.225Z,29.50
2019-05-05T14:08:54.008Z,28.90
2019-05-05T14:11:24.668Z,28.80
2019-05-05T14:13:53.432Z,29.10
2019-05-05T14:16:21.960Z,29.80
2019-05-05T14:18:50.395Z,29.40
2019-05-05T14:21:18.851Z,29.50
2019-05-05T14:23:48.916Z,29.70
2019-05-05T14:26:25.591Z,29.90
2019-05-05T14:28:47.811Z,30.00
2019-05-05T14:31:17.927Z,30.00
2019-05-05T14:33:51.311Z,30.20
2019-05-05T14:36:27.336Z,30.20
2019-05-05T14:38:57.252Z,29.90
2019-05-05T14:41:25.721Z,29.80
2019-05-05T14:43:56.388Z,30.00
2019-05-05T14:46:24.488Z,30.00
2019-05-05T14:48:53.518Z,29.80
2019-05-05T14:51:22.199Z,29.60
2019-05-05T14:53:50.635Z,29.50
2019-05-05T14:56:19.134Z,29.60
2019-05-05T14:58:47.564Z,29.60
2019-05-05T15:01:16.031Z,29.80
2019-05-05T15:03:44.630Z,30.00
2019-05-05T15:06:30.958Z,29.70
2019-05-05T15:09:03.966Z,29.80
2019-05-05T15:11:50.632Z,29.90
2019-05-05T15:14:19.153Z,30.00
2019-05-05T15:16:47.606Z,31.00
2019-05-05T15:19:16.382Z,30.40
2019-05-05T15:21:44.971Z,31.20
2019-05-05T15:24:13.848Z,31.40
2019-05-05T15:26:49.808Z,30.90
2019-05-05T15:29:12.597Z,30.20
2019-05-05T15:31:41.119Z,29.90
2019-05-05T15:34:09.567Z,30.40
2019-05-05T15:36:38.024Z,29.90
2019-05-05T15:39:07.859Z,29.70
2019-05-05T15:41:36.737Z,29.80
2019-05-05T15:44:05.607Z,29.60
2019-05-05T15:46:34.073Z,30.00
2019-05-05T15:49:04.214Z,29.80
2019-05-05T15:51:34.333Z,29.90
2019-05-05T15:54:03.925Z,30.00
2019-05-05T15:56:34.025Z,30.00
2019-05-05T15:59:03.075Z,29.90
2019-05-05T16:01:31.651Z,29.90
2019-05-05T16:04:00.128Z,30.00
2019-05-05T16:06:30.026Z,29.70
2019-05-05T16:08:58.492Z,29.60
2019-05-05T16:11:27.051Z,29.70
2019-05-05T16:13:55.564Z,29.80
2019-05-05T16:16:28.494Z,29.70
2019-05-05T16:19:05.597Z,30.00
2019-05-05T16:21:46.643Z,29.70
2019-05-05T16:24:24.586Z,29.50
2019-05-05T16:26:53.730Z,29.50
2019-05-05T16:29:23.824Z,30.00
2019-05-05T16:31:53.659Z,31.10
2019-05-05T16:34:23.534Z,31.20
2019-05-05T16:36:54.434Z,32.00
2019-05-05T16:39:22.508Z,31.40
2019-05-05T16:41:51.097Z,31.00
2019-05-05T16:44:19.570Z,31.10
2019-05-05T16:46:48.021Z,30.80
2019-05-05T16:49:16.735Z,30.80
2019-05-05T16:51:49.666Z,31.10
2019-05-05T16:54:19.771Z,31.40
2019-05-05T16:56:48.214Z,30.70
2019-05-05T16:59:16.686Z,30.60
2019-05-05T17:01:45.171Z,30.70
2019-05-05T17:04:14.306Z,30.50
2019-05-05T17:06:45.480Z,29.80
2019-05-05T17:09:14.906Z,30.50
2019-05-05T17:11:45.216Z,30.20
2019-05-05T17:14:18.026Z,31.20
2019-05-05T17:16:54.474Z,29.70
2019-05-05T17:19:30.501Z,30.20
2019-05-05T17:22:12.175Z,31.30
2019-05-05T17:24:40.650Z,31.40
2019-05-05T17:27:09.089Z,32.00
2019-05-05T17:29:37.543Z,31.30
2019-05-05T17:32:06.055Z,31.80
2019-05-05T17:34:34.523Z,32.30
2019-05-05T17:37:04.281Z,31.30
2019-05-05T17:39:34.595Z,31.90
2019-05-05T17:42:07.595Z,32.10
2019-05-05T17:44:44.385Z,32.30
2019-05-05T17:47:20.934Z,32.60
2019-05-05T17:49:57.223Z,32.60
2019-05-05T17:52:34.344Z,33.20
2019-05-05T17:55:05.055Z,33.00
2019-05-05T17:57:34.543Z,33.30
2019-05-05T18:00:04.383Z,33.50
2019-05-05T18:02:34.351Z,33.30
2019-05-05T18:05:04.557Z,33.60
2019-05-05T18:07:34.758Z,33.90
2019-05-05T18:10:07.747Z,34.00
2019-05-05T18:12:37.858Z,33.70
2019-05-05T18:15:25.371Z,34.10
2019-05-05T18:17:54.061Z,34.30
2019-05-05T18:20:24.321Z,35.10
2019-05-05T18:22:53.591Z,34.90
2019-05-05T18:25:23.850Z,35.50
2019-05-05T18:27:53.205Z,36.00
2019-05-05T18:30:23.922Z,36.10
2019-05-05T18:32:53.422Z,36.30
2019-05-05T18:35:24.143Z,36.60
2019-05-05T18:37:54.115Z,37.00
2019-05-05T18:40:24.123Z,37.10
2019-05-05T18:42:54.262Z,37.60
2019-05-05T18:45:23.760Z,37.70
2019-05-05T18:47:53.797Z,37.80
2019-05-05T18:50:24.255Z,37.80
2019-05-05T18:52:53.797Z,38.00
2019-05-05T18:55:22.554Z,37.60
2019-05-05T18:57:51.004Z,38.00
2019-05-05T19:00:26.880Z,38.30
2019-05-05T19:03:17.897Z,39.00
2019-05-05T19:05:41.023Z,38.20
2019-05-05T19:08:14.287Z,38.10
2019-05-05T19:10:43.436Z,38.50
2019-05-05T19:13:13.649Z,38.60
2019-05-05T19:15:42.259Z,39.10
2019-05-05T19:18:10.712Z,39.20
2019-05-05T19:20:56.710Z,39.20
2019-05-05T19:23:25.179Z,39.40
2019-05-05T19:25:55.810Z,39.80
2019-05-05T19:28:23.814Z,39.60
2019-05-05T19:30:54.807Z,39.40
2019-05-05T19:33:24.256Z,40.00
2019-05-05T19:35:53.844Z,40.20
2019-05-05T19:38:23.693Z,39.90
2019-05-05T19:40:56.033Z,39.70
2019-05-05T19:43:24.557Z,39.80
2019-05-05T19:45:55.097Z,40.10
2019-05-05T19:48:24.477Z,40.20
2019-05-05T19:50:57.868Z,40.50
2019-05-05T19:53:27.422Z,40.40
2019-05-05T19:55:56.596Z,40.50
2019-05-05T19:58:26.038Z,40.50
2019-05-05T20:00:56.151Z,40.70
2019-05-05T20:03:24.784Z,40.70
2019-05-05T20:05:54.070Z,40.70
2019-05-05T20:08:24.035Z,41.10
2019-05-05T20:10:54.157Z,41.20
2019-05-05T20:13:23.040Z,41.40
2019-05-05T20:15:56.191Z,41.40
2019-05-05T20:18:24.955Z,41.30
2019-05-05T20:21:01.632Z,41.40
2019-05-05T20:23:24.376Z,41.80
2019-05-05T20:25:53.756Z,41.80
2019-05-05T20:28:24.079Z,42.00
2019-05-05T20:30:54.059Z,42.40
2019-05-05T20:33:27.329Z,42.60
2019-05-05T20:36:03.794Z,42.30
2019-05-05T20:38:37.125Z,42.50
2019-05-05T20:41:14.297Z,42.60
2019-05-05T20:43:44.905Z,42.40
2019-05-05T20:46:13.662Z,42.50
2019-05-05T20:48:44.557Z,42.40
2019-05-05T20:51:13.781Z,42.50
2019-05-05T20:53:44.797Z,43.10
2019-05-05T20:56:14.904Z,42.90
2019-05-05T20:58:44.013Z,43.10
2019-05-05T21:01:14.040Z,42.90
2019-05-05T21:03:42.578Z,43.40
2019-05-05T21:06:13.650Z,43.40
2019-05-05T21:08:43.800Z,43.30
2019-05-05T21:11:13.889Z,43.70
2019-05-05T21:13:41.962Z,44.10
2019-05-05T21:16:10.456Z,44.40
2019-05-05T21:18:38.911Z,44.70
2019-05-05T21:21:09.039Z,44.20
2019-05-05T21:23:54.718Z,44.20
2019-05-05T21:26:41.099Z,45.00
2019-05-05T21:29:09.550Z,45.00
2019-05-05T21:31:38.006Z,45.00
2019-05-05T21:34:06.487Z,44.90
2019-05-05T21:36:34.919Z,45.60
2019-05-05T21:39:04.066Z,45.60
2019-05-05T21:41:33.959Z,45.20
2019-05-05T21:44:03.835Z,45.80
2019-05-05T21:46:34.562Z,46.50
2019-05-05T21:49:04.009Z,46.60
2019-05-05T21:51:53.976Z,46.60
2019-05-05T21:54:27.094Z,46.20
2019-05-05T21:57:15.400Z,46.40
2019-05-05T21:59:55.185Z,46.60
2019-05-05T22:02:15.297Z,47.10
2019-05-05T22:04:43.819Z,47.40
2019-05-05T22:07:14.410Z,48.20
2019-05-05T22:09:42.462Z,48.20
2019-05-05T22:12:10.964Z,48.40
2019-05-05T22:14:39.443Z,48.10
2019-05-05T22:17:07.882Z,48.10
2019-05-05T22:19:37.998Z,48.00
2019-05-05T22:22:08.078Z,48.00
2019-05-05T22:24:36.539Z,47.90
2019-05-05T22:27:04.977Z,48.30
2019-05-05T22:29:34.228Z,48.70
2019-05-05T22:32:05.975Z,48.60
2019-05-05T22:34:33.539Z,49.00
2019-05-05T22:37:05.733Z,49.30
2019-05-05T22:39:33.837Z,49.10
2019-05-05T22:42:04.553Z,48.70
2019-05-05T22:44:33.855Z,48.80
2019-05-05T22:47:04.502Z,48.80
2019-05-05T22:49:32.827Z,48.90
2019-05-05T22:52:01.293Z,49.30
2019-05-05T22:54:29.838Z,49.50
2019-05-05T22:56:58.294Z,49.70
2019-05-05T22:59:26.783Z,49.70
2019-05-05T23:01:55.222Z,49.60
2019-05-05T23:04:25.383Z,49.70
2019-05-05T23:06:58.213Z,49.80
2019-05-05T23:09:26.899Z,50.20
2019-05-05T23:11:55.363Z,50.50
2019-05-05T23:14:30.250Z,50.70
2019-05-05T23:17:05.319Z,50.80
2019-05-05T23:19:35.460Z,50.50
2019-05-05T23:22:06.155Z,50.90
2019-05-05T23:24:48.395Z,51.10
2019-05-05T23:27:35.067Z,51.40
2019-05-05T23:30:04.834Z,51.30
2019-05-05T23:32:34.143Z,51.30
2019-05-05T23:35:02.833Z,51.20
2019-05-05T23:37:31.347Z,51.00
2019-05-05T23:39:59.791Z,51.10
2019-05-05T23:42:28.287Z,50.90
2019-05-05T23:44:56.738Z,51.00
2019-05-05T23:47:25.208Z,50.90
2019-05-05T23:49:53.837Z,50.60
2019-05-05T23:52:24.007Z,50.70
2019-05-05T23:54:52.522Z,50.60
2019-05-05T23:57:20.987Z,50.80
2019-05-05T23:59:49.416Z,50.70
